sensor_id;sensor_type;location;lat;lon;timestamp;P1;durP1;ratioP1;P2;durP2;ratioP2
23743;SDS011;12052;53.478;10.182;2023-02-28T00:00:26;7.10;;;4.32;;
23743;SDS011;12052;53.478;10.182;2023-02-28T00:02:52;8.32;;;4.57;;
23743;SDS011;12052;53.478;10.182;2023-02-28T00:05:19;7.30;;;4.03;;
23743;SDS011;12052;53.478;10.182;2023-02-28T00:07:46;9.27;;;4.82;;
23743;SDS011;12052;53.478;10.182;2023-02-28T00:10:13;7.22;;;4.32;;
23743;SDS011;12052;53.478;10.182;2023-02-28T00:12:45;8.68;;;4.35;;
23743;SDS011;12052;53.478;10.182;2023-02-28T00:15:18;10.18;;;3.92;;
23743;SDS011;12052;53.478;10.182;2023-02-28T00:17:44;10.00;;;4.78;;
23743;SDS011;12052;53.478;10.182;2023-02-28T00:20:11;11.90;;;4.72;;
23743;SDS011;12052;53.478;10.182;2023-02-28T00:22:38;7.57;;;4.68;;
23743;SDS011;12052;53.478;10.182;2023-02-28T00:25:06;10.70;;;4.90;;
23743;SDS011;12052;53.478;10.182;2023-02-28T00:27:32;8.00;;;4.00;;
23743;SDS011;12052;53.478;10.182;2023-02-28T00:29:59;10.50;;;4.80;;
23743;SDS011;12052;53.478;10.182;2023-02-28T00:32:25;9.90;;;4.38;;
23743;SDS011;12052;53.478;10.182;2023-02-28T00:34:51;10.15;;;3.97;;
23743;SDS011;12052;53.478;10.182;2023-02-28T00:37:17;13.40;;;4.30;;
23743;SDS011;12052;53.478;10.182;2023-02-28T00:39:42;7.50;;;4.45;;
23743;SDS011;12052;53.478;10.182;2023-02-28T00:42:08;10.68;;;4.63;;
23743;SDS011;12052;53.478;10.182;2023-02-28T00:44:34;6.75;;;4.28;;
23743;SDS011;12052;53.478;10.182;2023-02-28T00:46:59;10.10;;;4.50;;
23743;SDS011;12052;53.478;10.182;2023-02-28T00:49:26;10.75;;;4.72;;
23743;SDS011;12052;53.478;10.182;2023-02-28T00:51:52;10.88;;;4.57;;
23743;SDS011;12052;53.478;10.182;2023-02-28T00:54:19;11.73;;;4.43;;
23743;SDS011;12052;53.478;10.182;2023-02-28T00:56:45;12.80;;;4.90;;
23743;SDS011;12052;53.478;10.182;2023-02-28T00:59:13;11.10;;;4.30;;
23743;SDS011;12052;53.478;10.182;2023-02-28T01:01:39;9.45;;;4.88;;
23743;SDS011;12052;53.478;10.182;2023-02-28T01:04:06;11.07;;;4.38;;
23743;SDS011;12052;53.478;10.182;2023-02-28T01:06:31;13.32;;;4.72;;
23743;SDS011;12052;53.478;10.182;2023-02-28T01:08:57;7.50;;;4.00;;
23743;SDS011;12052;53.478;10.182;2023-02-28T01:11:24;10.95;;;5.10;;
23743;SDS011;12052;53.478;10.182;2023-02-28T01:13:50;9.07;;;4.63;;
23743;SDS011;12052;53.478;10.182;2023-02-28T01:16:15;8.38;;;4.18;;
23743;SDS011;12052;53.478;10.182;2023-02-28T01:18:43;7.35;;;4.20;;
23743;SDS011;12052;53.478;10.182;2023-02-28T01:21:10;7.55;;;4.10;;
23743;SDS011;12052;53.478;10.182;2023-02-28T01:23:37;10.77;;;3.78;;
23743;SDS011;12052;53.478;10.182;2023-02-28T01:26:09;8.63;;;3.90;;
23743;SDS011;12052;53.478;10.182;2023-02-28T01:28:36;10.70;;;4.60;;
23743;SDS011;12052;53.478;10.182;2023-02-28T01:31:02;9.05;;;4.13;;
23743;SDS011;12052;53.478;10.182;2023-02-28T01:33:28;8.13;;;3.60;;
23743;SDS011;12052;53.478;10.182;2023-02-28T01:36:00;7.13;;;3.85;;
23743;SDS011;12052;53.478;10.182;2023-02-28T01:38:27;10.73;;;4.50;;
23743;SDS011;12052;53.478;10.182;2023-02-28T01:40:52;8.10;;;4.25;;
23743;SDS011;12052;53.478;10.182;2023-02-28T01:43:20;10.65;;;4.07;;
23743;SDS011;12052;53.478;10.182;2023-02-28T01:45:49;10.65;;;4.30;;
23743;SDS011;12052;53.478;10.182;2023-02-28T01:48:15;8.50;;;4.47;;
23743;SDS011;12052;53.478;10.182;2023-02-28T01:50:43;7.28;;;4.07;;
23743;SDS011;12052;53.478;10.182;2023-02-28T01:53:13;12.98;;;4.43;;
23743;SDS011;12052;53.478;10.182;2023-02-28T01:55:42;9.15;;;3.92;;
23743;SDS011;12052;53.478;10.182;2023-02-28T01:58:12;8.27;;;4.20;;
23743;SDS011;12052;53.478;10.182;2023-02-28T02:00:38;6.40;;;3.70;;
23743;SDS011;12052;53.478;10.182;2023-02-28T02:03:08;11.02;;;4.10;;
23743;SDS011;12052;53.478;10.182;2023-02-28T02:05:38;14.65;;;4.22;;
23743;SDS011;12052;53.478;10.182;2023-02-28T02:08:06;12.88;;;3.50;;
23743;SDS011;12052;53.478;10.182;2023-02-28T02:10:59;8.35;;;4.03;;
23743;SDS011;12052;53.478;10.182;2023-02-28T02:13:45;13.68;;;4.63;;
23743;SDS011;12052;53.478;10.182;2023-02-28T02:16:29;12.00;;;3.63;;
23743;SDS011;12052;53.478;10.182;2023-02-28T02:22:03;7.18;;;3.42;;
23743;SDS011;12052;53.478;10.182;2023-02-28T02:41:14;8.43;;;3.55;;
23743;SDS011;12052;53.478;10.182;2023-02-28T02:46:45;7.00;;;3.53;;
23743;SDS011;12052;53.478;10.182;2023-02-28T02:49:18;8.20;;;3.10;;
23743;SDS011;12052;53.478;10.182;2023-02-28T02:51:47;9.45;;;4.53;;
23743;SDS011;12052;53.478;10.182;2023-02-28T02:54:15;10.98;;;3.67;;
23743;SDS011;12052;53.478;10.182;2023-02-28T02:56:45;7.00;;;3.78;;
23743;SDS011;12052;53.478;10.182;2023-02-28T02:59:13;6.68;;;3.38;;
23743;SDS011;12052;53.478;10.182;2023-02-28T03:01:46;7.00;;;3.53;;
23743;SDS011;12052;53.478;10.182;2023-02-28T03:04:20;7.82;;;3.05;;
23743;SDS011;12052;53.478;10.182;2023-02-28T03:06:47;5.32;;;3.20;;
23743;SDS011;12052;53.478;10.182;2023-02-28T03:09:15;11.30;;;3.88;;
23743;SDS011;12052;53.478;10.182;2023-02-28T03:11:40;4.97;;;3.10;;
23743;SDS011;12052;53.478;10.182;2023-02-28T03:28:18;8.73;;;3.40;;
23743;SDS011;12052;53.478;10.182;2023-02-28T03:30:52;7.07;;;3.45;;
23743;SDS011;12052;53.478;10.182;2023-02-28T03:33:26;5.65;;;3.17;;
23743;SDS011;12052;53.478;10.182;2023-02-28T03:36:13;11.68;;;4.05;;
23743;SDS011;12052;53.478;10.182;2023-02-28T03:38:49;7.88;;;3.80;;
23743;SDS011;12052;53.478;10.182;2023-02-28T03:41:21;8.88;;;3.72;;
23743;SDS011;12052;53.478;10.182;2023-02-28T03:43:54;7.57;;;3.90;;
23743;SDS011;12052;53.478;10.182;2023-02-28T03:46:27;12.40;;;4.50;;
23743;SDS011;12052;53.478;10.182;2023-02-28T03:49:02;11.63;;;3.92;;
23743;SDS011;12052;53.478;10.182;2023-02-28T03:51:33;9.30;;;4.45;;
23743;SDS011;12052;53.478;10.182;2023-02-28T03:54:02;8.43;;;4.38;;
23743;SDS011;12052;53.478;10.182;2023-02-28T03:56:39;9.52;;;3.50;;
23743;SDS011;12052;53.478;10.182;2023-02-28T04:01:59;5.65;;;3.47;;
23743;SDS011;12052;53.478;10.182;2023-02-28T04:04:25;11.68;;;3.55;;
23743;SDS011;12052;53.478;10.182;2023-02-28T04:06:51;9.98;;;4.07;;
23743;SDS011;12052;53.478;10.182;2023-02-28T04:09:17;9.07;;;4.60;;
23743;SDS011;12052;53.478;10.182;2023-02-28T04:11:45;8.85;;;4.45;;
23743;SDS011;12052;53.478;10.182;2023-02-28T04:14:16;8.90;;;4.32;;
23743;SDS011;12052;53.478;10.182;2023-02-28T04:16:43;9.02;;;3.75;;
23743;SDS011;12052;53.478;10.182;2023-02-28T04:19:10;12.60;;;4.15;;
23743;SDS011;12052;53.478;10.182;2023-02-28T04:21:38;9.60;;;3.70;;
23743;SDS011;12052;53.478;10.182;2023-02-28T04:24:10;13.25;;;4.07;;
23743;SDS011;12052;53.478;10.182;2023-02-28T04:26:45;8.43;;;3.80;;
23743;SDS011;12052;53.478;10.182;2023-02-28T04:29:12;8.20;;;3.80;;
23743;SDS011;12052;53.478;10.182;2023-02-28T04:31:39;6.82;;;3.58;;
23743;SDS011;12052;53.478;10.182;2023-02-28T04:34:05;9.60;;;4.45;;
23743;SDS011;12052;53.478;10.182;2023-02-28T04:36:31;6.53;;;4.40;;
23743;SDS011;12052;53.478;10.182;2023-02-28T04:38:57;7.68;;;3.55;;
23743;SDS011;12052;53.478;10.182;2023-02-28T04:41:24;9.02;;;3.45;;
23743;SDS011;12052;53.478;10.182;2023-02-28T04:43:53;4.65;;;3.17;;
23743;SDS011;12052;53.478;10.182;2023-02-28T04:46:18;8.77;;;3.80;;
23743;SDS011;12052;53.478;10.182;2023-02-28T04:48:44;12.73;;;4.38;;
23743;SDS011;12052;53.478;10.182;2023-02-28T04:51:11;11.00;;;4.55;;
23743;SDS011;12052;53.478;10.182;2023-02-28T04:53:39;7.95;;;3.70;;
23743;SDS011;12052;53.478;10.182;2023-02-28T04:56:06;9.20;;;4.30;;
23743;SDS011;12052;53.478;10.182;2023-02-28T04:58:33;8.20;;;4.05;;
23743;SDS011;12052;53.478;10.182;2023-02-28T05:01:06;8.32;;;3.78;;
23743;SDS011;12052;53.478;10.182;2023-02-28T05:03:42;6.05;;;3.00;;
23743;SDS011;12052;53.478;10.182;2023-02-28T05:06:08;8.13;;;3.30;;
23743;SDS011;12052;53.478;10.182;2023-02-28T05:08:35;8.18;;;3.22;;
23743;SDS011;12052;53.478;10.182;2023-02-28T05:11:01;7.93;;;3.63;;
23743;SDS011;12052;53.478;10.182;2023-02-28T05:13:27;8.80;;;4.05;;
23743;SDS011;12052;53.478;10.182;2023-02-28T05:15:53;7.82;;;3.88;;
23743;SDS011;12052;53.478;10.182;2023-02-28T05:18:19;6.68;;;4.25;;
23743;SDS011;12052;53.478;10.182;2023-02-28T05:20:46;6.38;;;3.55;;
23743;SDS011;12052;53.478;10.182;2023-02-28T05:23:12;6.93;;;3.90;;
23743;SDS011;12052;53.478;10.182;2023-02-28T05:25:40;6.35;;;3.67;;
23743;SDS011;12052;53.478;10.182;2023-02-28T05:28:06;10.90;;;3.95;;
23743;SDS011;12052;53.478;10.182;2023-02-28T05:30:32;8.02;;;4.13;;
23743;SDS011;12052;53.478;10.182;2023-02-28T05:32:58;9.15;;;4.00;;
23743;SDS011;12052;53.478;10.182;2023-02-28T05:35:24;8.18;;;3.45;;
23743;SDS011;12052;53.478;10.182;2023-02-28T05:37:50;7.80;;;3.63;;
23743;SDS011;12052;53.478;10.182;2023-02-28T05:40:15;10.77;;;4.05;;
23743;SDS011;12052;53.478;10.182;2023-02-28T05:42:42;7.13;;;3.85;;
23743;SDS011;12052;53.478;10.182;2023-02-28T05:45:08;6.82;;;3.85;;
23743;SDS011;12052;53.478;10.182;2023-02-28T05:47:34;6.13;;;3.63;;
23743;SDS011;12052;53.478;10.182;2023-02-28T05:50:00;8.98;;;4.07;;
23743;SDS011;12052;53.478;10.182;2023-02-28T05:52:27;6.20;;;3.42;;
23743;SDS011;12052;53.478;10.182;2023-02-28T05:54:54;8.75;;;3.60;;
23743;SDS011;12052;53.478;10.182;2023-02-28T05:57:20;7.97;;;4.47;;
23743;SDS011;12052;53.478;10.182;2023-02-28T05:59:46;7.03;;;4.10;;
23743;SDS011;12052;53.478;10.182;2023-02-28T06:02:12;12.52;;;5.13;;
23743;SDS011;12052;53.478;10.182;2023-02-28T06:04:39;10.38;;;4.70;;
23743;SDS011;12052;53.478;10.182;2023-02-28T06:07:05;8.20;;;4.30;;
23743;SDS011;12052;53.478;10.182;2023-02-28T06:09:32;10.68;;;3.90;;
23743;SDS011;12052;53.478;10.182;2023-02-28T06:11:58;11.57;;;4.60;;
23743;SDS011;12052;53.478;10.182;2023-02-28T06:14:24;6.55;;;3.72;;
23743;SDS011;12052;53.478;10.182;2023-02-28T06:16:50;8.35;;;4.20;;
23743;SDS011;12052;53.478;10.182;2023-02-28T06:19:16;11.38;;;4.57;;
23743;SDS011;12052;53.478;10.182;2023-02-28T06:21:42;9.25;;;4.60;;
23743;SDS011;12052;53.478;10.182;2023-02-28T06:24:10;9.02;;;4.20;;
23743;SDS011;12052;53.478;10.182;2023-02-28T06:26:36;8.30;;;4.13;;
23743;SDS011;12052;53.478;10.182;2023-02-28T06:29:02;10.15;;;4.90;;
23743;SDS011;12052;53.478;10.182;2023-02-28T06:31:28;7.82;;;4.50;;
23743;SDS011;12052;53.478;10.182;2023-02-28T06:33:53;9.15;;;4.53;;
23743;SDS011;12052;53.478;10.182;2023-02-28T06:36:20;17.38;;;5.80;;
23743;SDS011;12052;53.478;10.182;2023-02-28T06:38:45;11.48;;;5.40;;
23743;SDS011;12052;53.478;10.182;2023-02-28T06:41:16;16.17;;;5.57;;
23743;SDS011;12052;53.478;10.182;2023-02-28T06:43:43;18.15;;;6.68;;
23743;SDS011;12052;53.478;10.182;2023-02-28T06:46:11;14.90;;;6.95;;
23743;SDS011;12052;53.478;10.182;2023-02-28T06:48:43;17.10;;;6.35;;
23743;SDS011;12052;53.478;10.182;2023-02-28T06:51:11;15.18;;;6.43;;
23743;SDS011;12052;53.478;10.182;2023-02-28T06:53:39;21.73;;;6.75;;
23743;SDS011;12052;53.478;10.182;2023-02-28T06:56:06;9.52;;;5.03;;
23743;SDS011;12052;53.478;10.182;2023-02-28T06:58:33;8.88;;;4.60;;
23743;SDS011;12052;53.478;10.182;2023-02-28T07:00:59;10.02;;;5.13;;
23743;SDS011;12052;53.478;10.182;2023-02-28T07:03:25;12.77;;;5.22;;
23743;SDS011;12052;53.478;10.182;2023-02-28T07:05:51;9.43;;;5.53;;
23743;SDS011;12052;53.478;10.182;2023-02-28T07:08:17;9.13;;;5.43;;
23743;SDS011;12052;53.478;10.182;2023-02-28T07:10:43;10.98;;;5.43;;
23743;SDS011;12052;53.478;10.182;2023-02-28T07:13:09;13.93;;;5.68;;
23743;SDS011;12052;53.478;10.182;2023-02-28T07:15:35;14.88;;;5.50;;
23743;SDS011;12052;53.478;10.182;2023-02-28T07:18:02;10.57;;;5.15;;
23743;SDS011;12052;53.478;10.182;2023-02-28T07:20:28;11.50;;;5.18;;
23743;SDS011;12052;53.478;10.182;2023-02-28T07:22:54;12.40;;;5.18;;
23743;SDS011;12052;53.478;10.182;2023-02-28T07:25:25;8.57;;;5.35;;
23743;SDS011;12052;53.478;10.182;2023-02-28T07:27:51;9.25;;;5.32;;
23743;SDS011;12052;53.478;10.182;2023-02-28T07:30:18;8.77;;;4.35;;
23743;SDS011;12052;53.478;10.182;2023-02-28T07:32:44;9.23;;;4.60;;
23743;SDS011;12052;53.478;10.182;2023-02-28T07:35:09;14.40;;;5.15;;
23743;SDS011;12052;53.478;10.182;2023-02-28T07:37:35;12.18;;;5.10;;
23743;SDS011;12052;53.478;10.182;2023-02-28T07:40:09;9.52;;;6.32;;
23743;SDS011;12052;53.478;10.182;2023-02-28T07:42:37;8.60;;;5.50;;
23743;SDS011;12052;53.478;10.182;2023-02-28T07:45:04;11.85;;;5.97;;
23743;SDS011;12052;53.478;10.182;2023-02-28T07:47:30;7.55;;;5.13;;
23743;SDS011;12052;53.478;10.182;2023-02-28T07:49:57;9.35;;;5.57;;
23743;SDS011;12052;53.478;10.182;2023-02-28T07:52:23;11.38;;;4.85;;
23743;SDS011;12052;53.478;10.182;2023-02-28T07:54:49;11.35;;;5.25;;
23743;SDS011;12052;53.478;10.182;2023-02-28T07:57:15;12.13;;;5.53;;
23743;SDS011;12052;53.478;10.182;2023-02-28T07:59:41;11.85;;;4.68;;
23743;SDS011;12052;53.478;10.182;2023-02-28T08:02:09;8.90;;;5.40;;
23743;SDS011;12052;53.478;10.182;2023-02-28T08:04:40;9.45;;;4.63;;
23743;SDS011;12052;53.478;10.182;2023-02-28T08:07:06;9.13;;;5.00;;
23743;SDS011;12052;53.478;10.182;2023-02-28T08:09:32;16.67;;;4.88;;
23743;SDS011;12052;53.478;10.182;2023-02-28T08:11:59;7.10;;;4.05;;
23743;SDS011;12052;53.478;10.182;2023-02-28T08:14:25;10.80;;;4.53;;
23743;SDS011;12052;53.478;10.182;2023-02-28T08:16:50;9.25;;;4.97;;
23743;SDS011;12052;53.478;10.182;2023-02-28T08:19:16;10.20;;;5.10;;
23743;SDS011;12052;53.478;10.182;2023-02-28T08:21:42;7.50;;;5.05;;
23743;SDS011;12052;53.478;10.182;2023-02-28T08:24:07;9.85;;;5.95;;
23743;SDS011;12052;53.478;10.182;2023-02-28T08:26:33;11.55;;;5.10;;
23743;SDS011;12052;53.478;10.182;2023-02-28T08:28:59;9.30;;;4.60;;
23743;SDS011;12052;53.478;10.182;2023-02-28T08:31:24;11.77;;;5.28;;
23743;SDS011;12052;53.478;10.182;2023-02-28T08:33:50;10.82;;;4.97;;
23743;SDS011;12052;53.478;10.182;2023-02-28T08:36:18;12.77;;;5.40;;
23743;SDS011;12052;53.478;10.182;2023-02-28T08:38:44;9.13;;;4.35;;
23743;SDS011;12052;53.478;10.182;2023-02-28T08:41:12;10.20;;;5.40;;
23743;SDS011;12052;53.478;10.182;2023-02-28T08:43:38;8.50;;;4.78;;
23743;SDS011;12052;53.478;10.182;2023-02-28T08:46:05;8.13;;;4.28;;
23743;SDS011;12052;53.478;10.182;2023-02-28T08:48:32;8.00;;;4.13;;
23743;SDS011;12052;53.478;10.182;2023-02-28T08:51:03;10.35;;;5.10;;
23743;SDS011;12052;53.478;10.182;2023-02-28T08:53:35;8.18;;;4.45;;
23743;SDS011;12052;53.478;10.182;2023-02-28T08:56:03;11.48;;;5.40;;
23743;SDS011;12052;53.478;10.182;2023-02-28T08:58:31;9.98;;;4.90;;
23743;SDS011;12052;53.478;10.182;2023-02-28T09:00:57;8.23;;;3.10;;
23743;SDS011;12052;53.478;10.182;2023-02-28T09:03:23;9.00;;;4.32;;
23743;SDS011;12052;53.478;10.182;2023-02-28T09:05:56;10.43;;;4.97;;
23743;SDS011;12052;53.478;10.182;2023-02-28T09:08:28;6.63;;;3.63;;
23743;SDS011;12052;53.478;10.182;2023-02-28T09:11:06;6.63;;;3.35;;
23743;SDS011;12052;53.478;10.182;2023-02-28T09:13:54;10.52;;;4.13;;
23743;SDS011;12052;53.478;10.182;2023-02-28T09:16:36;7.40;;;3.58;;
23743;SDS011;12052;53.478;10.182;2023-02-28T09:19:12;5.75;;;2.85;;
23743;SDS011;12052;53.478;10.182;2023-02-28T09:21:58;6.63;;;2.40;;
23743;SDS011;12052;53.478;10.182;2023-02-28T09:24:24;4.38;;;2.78;;
23743;SDS011;12052;53.478;10.182;2023-02-28T09:26:50;3.83;;;2.10;;
23743;SDS011;12052;53.478;10.182;2023-02-28T09:29:15;4.30;;;2.50;;
23743;SDS011;12052;53.478;10.182;2023-02-28T09:31:42;8.63;;;2.58;;
23743;SDS011;12052;53.478;10.182;2023-02-28T09:34:08;5.60;;;2.78;;
23743;SDS011;12052;53.478;10.182;2023-02-28T09:36:34;7.30;;;3.40;;
23743;SDS011;12052;53.478;10.182;2023-02-28T09:39:02;5.18;;;2.80;;
23743;SDS011;12052;53.478;10.182;2023-02-28T09:41:28;5.63;;;3.15;;
23743;SDS011;12052;53.478;10.182;2023-02-28T09:44:02;3.88;;;2.20;;
23743;SDS011;12052;53.478;10.182;2023-02-28T09:46:59;6.90;;;2.97;;
23743;SDS011;12052;53.478;10.182;2023-02-28T09:56:48;5.18;;;2.10;;
23743;SDS011;12052;53.478;10.182;2023-02-28T10:05:00;4.75;;;1.88;;
23743;SDS011;12052;53.478;10.182;2023-02-28T10:11:22;3.13;;;1.30;;
23743;SDS011;12052;53.478;10.182;2023-02-28T10:18:12;2.30;;;1.30;;
23743;SDS011;12052;53.478;10.182;2023-02-28T10:21:43;2.15;;;0.50;;
23743;SDS011;12052;53.478;10.182;2023-02-28T10:24:50;1.42;;;0.98;;
23743;SDS011;12052;53.478;10.182;2023-02-28T10:27:46;2.13;;;1.25;;
23743;SDS011;12052;53.478;10.182;2023-02-28T10:30:19;2.95;;;2.00;;
23743;SDS011;12052;53.478;10.182;2023-02-28T10:33:33;5.35;;;1.88;;
23743;SDS011;12052;53.478;10.182;2023-02-28T10:37:03;1.08;;;0.80;;
23743;SDS011;12052;53.478;10.182;2023-02-28T10:39:51;1.38;;;0.85;;
23743;SDS011;12052;53.478;10.182;2023-02-28T10:49:07;1.70;;;1.10;;
23743;SDS011;12052;53.478;10.182;2023-02-28T10:52:08;2.92;;;1.10;;
23743;SDS011;12052;53.478;10.182;2023-02-28T10:55:22;3.28;;;1.10;;
23743;SDS011;12052;53.478;10.182;2023-02-28T10:57:50;4.28;;;1.20;;
23743;SDS011;12052;53.478;10.182;2023-02-28T11:00:20;1.55;;;0.82;;
23743;SDS011;12052;53.478;10.182;2023-02-28T11:02:50;2.40;;;1.08;;
23743;SDS011;12052;53.478;10.182;2023-02-28T11:05:27;2.03;;;1.23;;
23743;SDS011;12052;53.478;10.182;2023-02-28T11:08:15;5.18;;;1.27;;
23743;SDS011;12052;53.478;10.182;2023-02-28T11:10:54;1.73;;;1.20;;
23743;SDS011;12052;53.478;10.182;2023-02-28T11:14:02;2.00;;;1.10;;
23743;SDS011;12052;53.478;10.182;2023-02-28T11:17:23;4.25;;;1.48;;
23743;SDS011;12052;53.478;10.182;2023-02-28T11:20:43;2.60;;;1.27;;
23743;SDS011;12052;53.478;10.182;2023-02-28T11:27:41;3.13;;;1.15;;
23743;SDS011;12052;53.478;10.182;2023-02-28T11:30:59;5.32;;;1.23;;
23743;SDS011;12052;53.478;10.182;2023-02-28T11:33:27;2.17;;;1.00;;
23743;SDS011;12052;53.478;10.182;2023-02-28T11:37:36;3.83;;;1.23;;
23743;SDS011;12052;53.478;10.182;2023-02-28T11:40:27;3.97;;;1.73;;
23743;SDS011;12052;53.478;10.182;2023-02-28T11:49:37;2.78;;;1.50;;
23743;SDS011;12052;53.478;10.182;2023-02-28T11:52:33;2.92;;;1.25;;
23743;SDS011;12052;53.478;10.182;2023-02-28T11:57:53;2.72;;;1.45;;
23743;SDS011;12052;53.478;10.182;2023-02-28T12:11:29;3.15;;;1.38;;
23743;SDS011;12052;53.478;10.182;2023-02-28T12:14:50;3.47;;;1.40;;
23743;SDS011;12052;53.478;10.182;2023-02-28T12:17:59;2.05;;;1.17;;
23743;SDS011;12052;53.478;10.182;2023-02-28T12:27:13;2.28;;;1.40;;
23743;SDS011;12052;53.478;10.182;2023-02-28T12:32:29;3.58;;;1.42;;
23743;SDS011;12052;53.478;10.182;2023-02-28T12:35:32;2.42;;;1.15;;
23743;SDS011;12052;53.478;10.182;2023-02-28T12:38:06;1.10;;;1.00;;
23743;SDS011;12052;53.478;10.182;2023-02-28T12:41:05;3.47;;;1.33;;
23743;SDS011;12052;53.478;10.182;2023-02-28T12:46:31;1.70;;;1.13;;
23743;SDS011;12052;53.478;10.182;2023-02-28T12:52:07;3.00;;;1.35;;
23743;SDS011;12052;53.478;10.182;2023-02-28T12:55:05;2.33;;;1.15;;
23743;SDS011;12052;53.478;10.182;2023-02-28T13:00:23;2.58;;;1.50;;
23743;SDS011;12052;53.478;10.182;2023-02-28T13:09:15;2.63;;;1.60;;
23743;SDS011;12052;53.478;10.182;2023-02-28T13:11:45;3.28;;;1.48;;
23743;SDS011;12052;53.478;10.182;2023-02-28T13:14:22;2.85;;;1.20;;
23743;SDS011;12052;53.478;10.182;2023-02-28T13:16:54;2.17;;;1.35;;
23743;SDS011;12052;53.478;10.182;2023-02-28T13:22:47;2.83;;;1.30;;
23743;SDS011;12052;53.478;10.182;2023-02-28T13:31:25;3.25;;;1.40;;
23743;SDS011;12052;53.478;10.182;2023-02-28T13:36:28;3.70;;;1.67;;
23743;SDS011;12052;53.478;10.182;2023-02-28T13:40:26;3.08;;;1.58;;
23743;SDS011;12052;53.478;10.182;2023-02-28T13:43:58;4.00;;;1.40;;
23743;SDS011;12052;53.478;10.182;2023-02-28T13:46:38;4.28;;;1.85;;
23743;SDS011;12052;53.478;10.182;2023-02-28T13:49:27;2.53;;;1.27;;
23743;SDS011;12052;53.478;10.182;2023-02-28T13:58:46;3.75;;;1.48;;
23743;SDS011;12052;53.478;10.182;2023-02-28T14:01:21;4.50;;;1.58;;
23743;SDS011;12052;53.478;10.182;2023-02-28T14:04:29;5.57;;;1.50;;
23743;SDS011;12052;53.478;10.182;2023-02-28T14:07:20;4.20;;;1.70;;
23743;SDS011;12052;53.478;10.182;2023-02-28T14:10:03;2.20;;;1.42;;
23743;SDS011;12052;53.478;10.182;2023-02-28T14:15:47;4.20;;;1.40;;
23743;SDS011;12052;53.478;10.182;2023-02-28T14:18:35;2.22;;;1.45;;
23743;SDS011;12052;53.478;10.182;2023-02-28T14:24:10;3.22;;;1.48;;
23743;SDS011;12052;53.478;10.182;2023-02-28T14:29:59;2.67;;;1.40;;
23743;SDS011;12052;53.478;10.182;2023-02-28T14:33:00;1.60;;;1.27;;
23743;SDS011;12052;53.478;10.182;2023-02-28T14:38:45;3.10;;;1.42;;
23743;SDS011;12052;53.478;10.182;2023-02-28T14:41:32;2.80;;;1.70;;
23743;SDS011;12052;53.478;10.182;2023-02-28T14:44:30;2.38;;;1.70;;
23743;SDS011;12052;53.478;10.182;2023-02-28T14:48:08;3.33;;;1.60;;
23743;SDS011;12052;53.478;10.182;2023-02-28T14:51:31;8.80;;;1.40;;
23743;SDS011;12052;53.478;10.182;2023-02-28T14:54:12;2.28;;;1.20;;
23743;SDS011;12052;53.478;10.182;2023-02-28T14:56:40;4.78;;;1.63;;
23743;SDS011;12052;53.478;10.182;2023-02-28T14:59:17;2.80;;;1.70;;
23743;SDS011;12052;53.478;10.182;2023-02-28T15:02:22;3.50;;;1.38;;
23743;SDS011;12052;53.478;10.182;2023-02-28T15:08:25;2.72;;;1.52;;
23743;SDS011;12052;53.478;10.182;2023-02-28T15:11:04;2.80;;;1.60;;
23743;SDS011;12052;53.478;10.182;2023-02-28T15:14:13;5.88;;;1.80;;
23743;SDS011;12052;53.478;10.182;2023-02-28T15:17:20;1.77;;;1.25;;
23743;SDS011;12052;53.478;10.182;2023-02-28T15:20:31;3.60;;;1.60;;
23743;SDS011;12052;53.478;10.182;2023-02-28T15:22:58;4.28;;;1.92;;
23743;SDS011;12052;53.478;10.182;2023-02-28T15:25:24;4.10;;;1.70;;
23743;SDS011;12052;53.478;10.182;2023-02-28T15:27:55;7.63;;;1.98;;
23743;SDS011;12052;53.478;10.182;2023-02-28T15:30:26;6.30;;;1.67;;
23743;SDS011;12052;53.478;10.182;2023-02-28T15:33:17;3.70;;;1.55;;
23743;SDS011;12052;53.478;10.182;2023-02-28T15:35:49;4.88;;;1.67;;
23743;SDS011;12052;53.478;10.182;2023-02-28T15:40:41;2.88;;;1.38;;
23743;SDS011;12052;53.478;10.182;2023-02-28T15:43:28;5.28;;;1.42;;
23743;SDS011;12052;53.478;10.182;2023-02-28T15:51:16;3.67;;;2.53;;
23743;SDS011;12052;53.478;10.182;2023-02-28T15:53:48;3.20;;;1.52;;
23743;SDS011;12052;53.478;10.182;2023-02-28T15:58:56;4.13;;;2.50;;
23743;SDS011;12052;53.478;10.182;2023-02-28T16:01:30;4.13;;;2.22;;
23743;SDS011;12052;53.478;10.182;2023-02-28T16:03:59;3.33;;;1.83;;
23743;SDS011;12052;53.478;10.182;2023-02-28T16:06:33;3.27;;;1.80;;
23743;SDS011;12052;53.478;10.182;2023-02-28T16:09:02;3.67;;;1.83;;
23743;SDS011;12052;53.478;10.182;2023-02-28T16:11:28;2.88;;;1.73;;
23743;SDS011;12052;53.478;10.182;2023-02-28T16:14:03;2.53;;;1.60;;
23743;SDS011;12052;53.478;10.182;2023-02-28T16:16:29;4.90;;;2.30;;
23743;SDS011;12052;53.478;10.182;2023-02-28T16:18:57;5.30;;;2.30;;
23743;SDS011;12052;53.478;10.182;2023-02-28T16:21:22;5.72;;;2.10;;
23743;SDS011;12052;53.478;10.182;2023-02-28T16:23:49;3.42;;;2.25;;
23743;SDS011;12052;53.478;10.182;2023-02-28T16:26:19;4.93;;;2.25;;
23743;SDS011;12052;53.478;10.182;2023-02-28T16:31:13;2.95;;;2.22;;
23743;SDS011;12052;53.478;10.182;2023-02-28T16:33:41;5.15;;;2.40;;
23743;SDS011;12052;53.478;10.182;2023-02-28T16:36:19;5.97;;;2.53;;
23743;SDS011;12052;53.478;10.182;2023-02-28T16:38:49;6.00;;;2.78;;
23743;SDS011;12052;53.478;10.182;2023-02-28T16:41:18;7.70;;;3.70;;
23743;SDS011;12052;53.478;10.182;2023-02-28T16:43:51;4.20;;;2.42;;
23743;SDS011;12052;53.478;10.182;2023-02-28T16:46:19;4.50;;;2.30;;
23743;SDS011;12052;53.478;10.182;2023-02-28T16:48:45;3.65;;;2.20;;
23743;SDS011;12052;53.478;10.182;2023-02-28T16:51:14;6.35;;;1.80;;
23743;SDS011;12052;53.478;10.182;2023-02-28T16:53:40;3.78;;;2.20;;
23743;SDS011;12052;53.478;10.182;2023-02-28T16:56:08;4.63;;;2.38;;
23743;SDS011;12052;53.478;10.182;2023-02-28T16:58:44;4.85;;;2.55;;
23743;SDS011;12052;53.478;10.182;2023-02-28T17:01:10;2.70;;;2.00;;
23743;SDS011;12052;53.478;10.182;2023-02-28T17:03:35;4.80;;;2.30;;
23743;SDS011;12052;53.478;10.182;2023-02-28T17:06:02;4.47;;;2.03;;
23743;SDS011;12052;53.478;10.182;2023-02-28T17:08:28;7.13;;;2.30;;
23743;SDS011;12052;53.478;10.182;2023-02-28T17:10:56;4.50;;;2.58;;
23743;SDS011;12052;53.478;10.182;2023-02-28T17:13:22;4.65;;;2.35;;
23743;SDS011;12052;53.478;10.182;2023-02-28T17:15:48;2.45;;;1.88;;
23743;SDS011;12052;53.478;10.182;2023-02-28T17:18:14;5.90;;;2.70;;
23743;SDS011;12052;53.478;10.182;2023-02-28T17:20:44;4.78;;;2.47;;
23743;SDS011;12052;53.478;10.182;2023-02-28T17:23:10;6.53;;;2.40;;
23743;SDS011;12052;53.478;10.182;2023-02-28T17:25:36;6.43;;;3.22;;
23743;SDS011;12052;53.478;10.182;2023-02-28T17:28:02;8.75;;;3.55;;
23743;SDS011;12052;53.478;10.182;2023-02-28T17:30:28;13.60;;;5.65;;
23743;SDS011;12052;53.478;10.182;2023-02-28T17:32:54;23.60;;;7.18;;
23743;SDS011;12052;53.478;10.182;2023-02-28T17:35:21;25.95;;;8.45;;
23743;SDS011;12052;53.478;10.182;2023-02-28T17:37:47;25.33;;;8.02;;
23743;SDS011;12052;53.478;10.182;2023-02-28T17:40:17;26.98;;;9.30;;
23743;SDS011;12052;53.478;10.182;2023-02-28T17:42:47;18.13;;;7.50;;
23743;SDS011;12052;53.478;10.182;2023-02-28T17:45:13;15.35;;;5.93;;
23743;SDS011;12052;53.478;10.182;2023-02-28T17:47:39;34.85;;;11.90;;
23743;SDS011;12052;53.478;10.182;2023-02-28T17:50:08;31.73;;;11.90;;